Time;durP1;ratioP1;P1;durP2;ratioP2;P2;SDS_P1;SDS_P2;PMS_P1;PMS_P2;Temp;Humidity;BMP_temperature;BMP_pressure;BME280_temperature;BME280_humidity;BME280_pressure;Samples;Min_cycle;Max_cycle;Signal;HPM_P1;HPM_P2
2021/05/15 00:01:12;;;;;;;15.55;8.00;;;;;;;;;;5051104;28;20065;-83
2021/05/15 00:03:38;;;;;;;15.65;7.38;;;;;;;;;;5050987;28;20062;-84
2021/05/15 00:06:04;;;;;;;16.08;7.97;;;;;;;;;;5051061;28;20452;-82
2021/05/15 00:08:30;;;;;;;15.35;7.65;;;;;;;;;;5052140;28;20036;-84
2021/05/15 00:10:56;;;;;;;14.60;7.40;;;;;;;;;;5050947;28;20037;-84
2021/05/15 00:13:23;;;;;;;13.40;7.70;;;;;;;;;;5050821;28;20452;-83
2021/05/15 00:15:49;;;;;;;15.32;7.97;;;;;;;;;;5050826;28;20055;-83
2021/05/15 00:18:21;;;;;;;17.38;8.50;;;;;;;;;;5051971;28;20567;-83
2021/05/15 00:20:47;;;;;;;15.45;7.82;;;;;;;;;;5050798;28;20072;-83
2021/05/15 00:23:13;;;;;;;18.20;8.60;;;;;;;;;;5051912;28;20040;-83
2021/05/15 00:25:39;;;;;;;16.88;8.38;;;;;;;;;;5050707;28;20040;-83
2021/05/15 00:28:05;;;;;;;18.45;8.13;;;;;;;;;;5050822;28;20037;-83
2021/05/15 00:30:31;;;;;;;15.15;8.35;;;;;;;;;;5034325;28;20038;-82
2021/05/15 00:32:57;;;;;;;16.45;7.72;;;;;;;;;;5051920;28;20070;-83
2021/05/15 00:35:23;;;;;;;15.73;7.88;;;;;;;;;;5051854;28;20041;-82
2021/05/15 00:37:50;;;;;;;17.30;8.65;;;;;;;;;;5034191;28;20090;-83
2021/05/15 00:40:16;;;;;;;14.60;8.05;;;;;;;;;;5051570;28;20072;-81
2021/05/15 00:42:42;;;;;;;16.15;7.88;;;;;;;;;;5051639;28;20567;-82
2021/05/15 00:45:09;;;;;;;15.57;7.97;;;;;;;;;;5034070;28;20040;-82
2021/05/15 00:47:35;;;;;;;14.90;7.35;;;;;;;;;;5051787;28;20037;-82
2021/05/15 00:50:01;;;;;;;15.15;7.43;;;;;;;;;;5050630;28;20041;-82
2021/05/15 00:52:29;;;;;;;12.75;7.05;;;;;;;;;;5050553;28;20040;-82
2021/05/15 00:54:55;;;;;;;13.23;7.53;;;;;;;;;;5050404;28;20041;-82
2021/05/15 00:57:21;;;;;;;15.13;7.63;;;;;;;;;;5050447;28;20040;-82
2021/05/15 00:59:47;;;;;;;15.70;7.93;;;;;;;;;;5050620;28;20049;-83
2021/05/15 01:02:13;;;;;;;14.15;7.72;;;;;;;;;;5050590;28;20040;-83
2021/05/15 01:04:40;;;;;;;15.02;8.02;;;;;;;;;;5051194;28;20484;-84
2021/05/15 01:07:06;;;;;;;16.58;8.27;;;;;;;;;;5054290;28;20037;-83
2021/05/15 01:09:32;;;;;;;17.73;8.43;;;;;;;;;;5054019;28;20040;-83
2021/05/15 01:11:58;;;;;;;13.20;6.75;;;;;;;;;;5054213;28;20037;-83
2021/05/15 01:14:24;;;;;;;13.27;7.40;;;;;;;;;;5054090;28;20056;-84
2021/05/15 01:16:51;;;;;;;18.15;8.05;;;;;;;;;;5055158;28;20037;-84
2021/05/15 01:19:17;;;;;;;14.55;7.50;;;;;;;;;;5055185;28;20037;-83
2021/05/15 01:21:43;;;;;;;17.80;8.15;;;;;;;;;;5055104;28;20037;-83
2021/05/15 01:24:09;;;;;;;15.82;8.05;;;;;;;;;;5054897;28;20045;-82
2021/05/15 01:26:35;;;;;;;14.05;7.60;;;;;;;;;;5053973;28;20041;-84
2021/05/15 01:29:04;;;;;;;15.68;7.65;;;;;;;;;;5053812;28;20052;-83
2021/05/15 01:31:30;;;;;;;16.90;7.60;;;;;;;;;;5055082;28;20052;-83
2021/05/15 01:33:57;;;;;;;16.48;8.00;;;;;;;;;;5054981;28;20037;-83
2021/05/15 01:36:23;;;;;;;16.42;7.57;;;;;;;;;;5053629;28;20041;-83
2021/05/15 01:38:50;;;;;;;14.82;7.60;;;;;;;;;;5054733;28;20071;-83
2021/05/15 01:41:16;;;;;;;13.52;7.45;;;;;;;;;;5053458;28;20128;-84
2021/05/15 01:43:42;;;;;;;13.30;7.22;;;;;;;;;;5036979;28;20045;-84
2021/05/15 01:46:09;;;;;;;16.10;7.45;;;;;;;;;;5037159;28;20036;-84
2021/05/15 01:48:35;;;;;;;20.15;8.10;;;;;;;;;;5053628;28;20467;-84
2021/05/15 01:51:01;;;;;;;18.02;8.27;;;;;;;;;;5053328;28;20535;-85
2021/05/15 01:53:28;;;;;;;17.23;7.90;;;;;;;;;;5053277;28;20190;-84
2021/05/15 01:55:54;;;;;;;16.05;7.70;;;;;;;;;;5053302;28;20036;-83
2021/05/15 01:58:20;;;;;;;15.73;8.05;;;;;;;;;;5053182;28;20045;-82
2021/05/15 02:00:46;;;;;;;14.73;7.50;;;;;;;;;;5053317;28;20041;-83
2021/05/15 02:03:12;;;;;;;16.13;7.88;;;;;;;;;;5054319;28;20073;-82
2021/05/15 02:05:39;;;;;;;16.73;8.13;;;;;;;;;;5053137;28;20124;-83
2021/05/15 02:08:05;;;;;;;14.55;7.55;;;;;;;;;;5053054;28;20068;-84
2021/05/15 02:10:31;;;;;;;16.98;8.32;;;;;;;;;;5053145;28;20086;-90
2021/05/15 02:12:57;;;;;;;19.20;8.90;;;;;;;;;;5036555;28;20051;-83
2021/05/15 02:15:23;;;;;;;18.88;8.45;;;;;;;;;;5036197;28;20115;-83
2021/05/15 02:17:49;;;;;;;19.92;8.93;;;;;;;;;;5051835;28;20037;-83
2021/05/15 02:20:15;;;;;;;18.17;8.30;;;;;;;;;;5052854;28;20428;-83
2021/05/15 02:22:43;;;;;;;17.25;8.32;;;;;;;;;;5053919;28;20041;-82
2021/05/15 02:25:09;;;;;;;16.77;8.57;;;;;;;;;;5036487;28;20250;-83
2021/05/15 02:27:35;;;;;;;17.77;7.75;;;;;;;;;;5036355;28;20033;-83
2021/05/15 02:30:01;;;;;;;18.85;8.25;;;;;;;;;;5052725;28;20147;-83
2021/05/15 02:32:28;;;;;;;16.95;8.45;;;;;;;;;;5052632;28;20052;-83
2021/05/15 02:34:54;;;;;;;17.02;7.88;;;;;;;;;;5053676;28;20075;-84
2021/05/15 02:37:20;;;;;;;19.38;8.27;;;;;;;;;;5052445;28;20141;-82
2021/05/15 02:39:47;;;;;;;15.63;8.23;;;;;;;;;;5053467;28;20037;-83
2021/05/15 02:42:13;;;;;;;18.33;8.35;;;;;;;;;;5053799;28;20404;-83
2021/05/15 02:44:39;;;;;;;17.55;8.13;;;;;;;;;;5053860;28;20037;-84
2021/05/15 02:47:05;;;;;;;15.90;7.60;;;;;;;;;;5052343;28;20041;-83
2021/05/15 02:49:31;;;;;;;17.05;8.15;;;;;;;;;;5052226;28;20040;-83
2021/05/15 02:51:57;;;;;;;19.40;8.90;;;;;;;;;;5035748;28;20091;-83
2021/05/15 02:54:23;;;;;;;19.92;8.90;;;;;;;;;;5052244;28;20044;-84
2021/05/15 02:56:49;;;;;;;20.05;9.18;;;;;;;;;;5035784;28;20049;-83
2021/05/15 02:59:16;;;;;;;18.50;8.30;;;;;;;;;;5052157;28;20131;-83
2021/05/15 03:01:42;;;;;;;18.55;8.23;;;;;;;;;;5052210;28;20037;-83
2021/05/15 03:04:08;;;;;;;18.83;8.68;;;;;;;;;;5051959;28;20045;-83
2021/05/15 03:06:34;;;;;;;18.73;8.68;;;;;;;;;;5053102;28;20480;-84
2021/05/15 03:09:00;;;;;;;20.38;9.18;;;;;;;;;;5035337;28;20041;-83
2021/05/15 03:11:26;;;;;;;16.80;7.90;;;;;;;;;;5051925;28;20063;-85
2021/05/15 03:13:52;;;;;;;20.38;9.43;;;;;;;;;;5051900;28;20064;-84
2021/05/15 03:16:18;;;;;;;22.27;8.65;;;;;;;;;;5051624;28;20574;-83
2021/05/15 03:18:44;;;;;;;19.90;8.77;;;;;;;;;;5052847;28;20064;-82
2021/05/15 03:21:10;;;;;;;20.08;9.73;;;;;;;;;;5051893;28;20037;-83
2021/05/15 03:23:36;;;;;;;20.75;9.73;;;;;;;;;;5051579;28;20037;-83
2021/05/15 03:26:02;;;;;;;17.65;8.63;;;;;;;;;;5051476;28;20045;-83
2021/05/15 03:28:28;;;;;;;22.00;9.55;;;;;;;;;;5051234;28;20041;-83
2021/05/15 03:30:54;;;;;;;18.90;9.65;;;;;;;;;;5051583;28;20044;-82
2021/05/15 03:33:20;;;;;;;21.45;9.82;;;;;;;;;;5034838;28;20037;-82
2021/05/15 03:35:46;;;;;;;18.60;7.95;;;;;;;;;;5051401;28;20107;-82
2021/05/15 03:38:12;;;;;;;24.25;10.20;;;;;;;;;;5051265;28;20110;-84
2021/05/15 03:40:40;;;;;;;27.05;10.93;;;;;;;;;;5051188;28;20061;-84
2021/05/15 03:43:06;;;;;;;22.23;10.38;;;;;;;;;;5051253;28;20115;-84
2021/05/15 03:45:32;;;;;;;22.20;10.38;;;;;;;;;;5051249;28;20041;-85
2021/05/15 03:47:58;;;;;;;26.02;10.90;;;;;;;;;;5034697;28;20052;-85
2021/05/15 03:50:25;;;;;;;25.98;10.60;;;;;;;;;;5052366;28;20037;-84
2021/05/15 03:52:51;;;;;;;22.27;9.60;;;;;;;;;;5051152;28;20047;-84
2021/05/15 03:55:18;;;;;;;21.58;10.63;;;;;;;;;;5052377;28;20099;-83
2021/05/15 03:57:44;;;;;;;19.33;9.30;;;;;;;;;;5051011;28;20400;-84
2021/05/15 04:00:10;;;;;;;26.58;10.15;;;;;;;;;;5051175;28;20037;-84
2021/05/15 04:02:37;;;;;;;16.80;8.60;;;;;;;;;;5050888;28;20551;-84
2021/05/15 04:05:03;;;;;;;21.55;9.63;;;;;;;;;;5051007;28;20037;-84
2021/05/15 04:07:29;;;;;;;19.63;9.57;;;;;;;;;;5050967;28;20036;-84
2021/05/15 04:09:55;;;;;;;25.10;10.52;;;;;;;;;;5050857;28;20042;-84
2021/05/15 04:12:23;;;;;;;20.67;9.55;;;;;;;;;;5050953;28;20033;-84
2021/05/15 04:15:02;;;;;;;22.20;9.85;;;;;;;;;;5050842;28;20070;-83
2021/05/15 04:17:29;;;;;;;24.15;10.63;;;;;;;;;;5036145;28;20037;-84
2021/05/15 04:19:56;;;;;;;23.92;10.55;;;;;;;;;;5034513;28;20123;-84
2021/05/15 04:22:22;;;;;;;23.23;10.30;;;;;;;;;;5050870;28;20473;-83
2021/05/15 04:24:48;;;;;;;24.55;10.85;;;;;;;;;;5034233;28;20056;-84
2021/05/15 04:27:14;;;;;;;24.63;10.52;;;;;;;;;;5050693;28;20119;-83
2021/05/15 04:29:40;;;;;;;25.38;11.32;;;;;;;;;;5050981;28;20080;-83
2021/05/15 04:32:06;;;;;;;26.42;11.80;;;;;;;;;;5050686;28;20033;-83
2021/05/15 04:34:32;;;;;;;25.70;11.13;;;;;;;;;;5051940;28;20037;-83
2021/05/15 04:36:58;;;;;;;24.75;11.35;;;;;;;;;;5050701;28;20044;-83
2021/05/15 04:39:25;;;;;;;28.10;11.85;;;;;;;;;;5051119;28;20036;-83
2021/05/15 04:41:53;;;;;;;24.83;10.98;;;;;;;;;;5055680;28;20045;-84
2021/05/15 04:44:19;;;;;;;26.45;10.93;;;;;;;;;;5054473;28;20045;-83
2021/05/15 04:46:45;;;;;;;27.17;11.05;;;;;;;;;;5054559;28;20037;-83
2021/05/15 04:49:11;;;;;;;31.42;12.00;;;;;;;;;;5056009;28;20048;-83
2021/05/15 04:51:37;;;;;;;27.58;11.63;;;;;;;;;;5054695;28;20067;-83
2021/05/15 04:54:03;;;;;;;27.42;11.50;;;;;;;;;;5054536;28;20120;-84
2021/05/15 04:56:29;;;;;;;27.67;11.77;;;;;;;;;;5055451;28;20040;-83
2021/05/15 04:58:56;;;;;;;26.48;11.52;;;;;;;;;;5054393;28;20029;-82
2021/05/15 05:01:22;;;;;;;27.45;12.13;;;;;;;;;;5055551;28;20044;-83
2021/05/15 05:03:48;;;;;;;29.55;11.48;;;;;;;;;;5037549;28;20049;-84
2021/05/15 05:06:14;;;;;;;26.38;11.35;;;;;;;;;;5054319;28;20033;-84
2021/05/15 05:08:40;;;;;;;25.27;11.70;;;;;;;;;;5055575;28;20111;-84
2021/05/15 05:11:06;;;;;;;25.92;11.35;;;;;;;;;;5055183;28;20040;-84
2021/05/15 05:13:32;;;;;;;30.85;12.13;;;;;;;;;;5055303;28;20546;-84
2021/05/15 05:15:58;;;;;;;28.02;12.02;;;;;;;;;;5055219;28;20037;-84
2021/05/15 05:18:24;;;;;;;31.17;11.55;;;;;;;;;;5054033;28;20040;-84
2021/05/15 05:20:50;;;;;;;25.90;11.95;;;;;;;;;;5054104;28;20041;-84
2021/05/15 05:23:16;;;;;;;25.40;10.93;;;;;;;;;;5053975;28;20067;-84
2021/05/15 05:25:42;;;;;;;22.75;10.80;;;;;;;;;;5054011;28;20112;-84
2021/05/15 05:28:08;;;;;;;24.85;11.07;;;;;;;;;;5037145;28;20033;-84
2021/05/15 05:30:35;;;;;;;24.98;11.18;;;;;;;;;;5054953;28;20044;-84
2021/05/15 05:33:01;;;;;;;26.08;10.55;;;;;;;;;;5054867;28;20044;-84
2021/05/15 05:35:27;;;;;;;28.65;11.70;;;;;;;;;;5037201;28;20492;-84
2021/05/15 05:37:53;;;;;;;25.48;11.93;;;;;;;;;;5054738;28;20112;-84
2021/05/15 05:40:19;;;;;;;24.10;10.85;;;;;;;;;;5053259;28;20041;-84
2021/05/15 05:42:45;;;;;;;24.67;11.15;;;;;;;;;;5053693;28;20033;-84
2021/05/15 05:45:12;;;;;;;24.85;10.50;;;;;;;;;;5053659;28;20400;-84
2021/05/15 05:47:38;;;;;;;24.80;10.57;;;;;;;;;;5036917;28;20511;-84
2021/05/15 05:50:05;;;;;;;24.73;10.43;;;;;;;;;;5054441;28;20065;-84
2021/05/15 05:52:31;;;;;;;25.27;11.10;;;;;;;;;;5053312;28;20086;-84
2021/05/15 05:54:57;;;;;;;29.80;11.13;;;;;;;;;;5053270;28;20044;-83
2021/05/15 05:57:24;;;;;;;26.05;11.07;;;;;;;;;;5053806;28;20431;-83
2021/05/15 05:59:53;;;;;;;24.63;11.30;;;;;;;;;;5053302;28;20037;-84
2021/05/15 06:02:19;;;;;;;25.15;10.52;;;;;;;;;;5053220;28;20087;-83
2021/05/15 06:04:45;;;;;;;22.77;10.68;;;;;;;;;;5036676;28;20029;-88
2021/05/15 06:07:13;;;;;;;23.92;11.20;;;;;;;;;;5036550;28;20538;-84
2021/05/15 06:09:39;;;;;;;23.58;10.70;;;;;;;;;;5052885;28;20431;-84
2021/05/15 06:12:05;;;;;;;26.15;11.07;;;;;;;;;;5053080;28;20029;-84
2021/05/15 06:14:33;;;;;;;24.75;10.82;;;;;;;;;;5052885;28;20116;-84
2021/05/15 06:16:59;;;;;;;24.58;10.65;;;;;;;;;;5052779;28;20195;-83
2021/05/15 06:19:25;;;;;;;29.88;11.80;;;;;;;;;;5052864;28;20487;-83
2021/05/15 06:21:51;;;;;;;27.90;11.32;;;;;;;;;;5052761;28;20072;-83
2021/05/15 06:24:17;;;;;;;28.17;11.65;;;;;;;;;;5052767;28;20373;-83
2021/05/15 06:26:43;;;;;;;28.65;11.80;;;;;;;;;;5052707;28;20036;-83
2021/05/15 06:29:09;;;;;;;28.80;11.75;;;;;;;;;;5052670;28;20037;-84
2021/05/15 06:31:35;;;;;;;28.60;11.98;;;;;;;;;;5053811;28;20108;-86
2021/05/15 06:34:01;;;;;;;24.48;10.63;;;;;;;;;;5053380;28;20098;-84
2021/05/15 06:36:27;;;;;;;29.98;11.77;;;;;;;;;;5035960;28;20041;-85
2021/05/15 06:38:53;;;;;;;26.88;11.50;;;;;;;;;;5052432;28;20061;-85
2021/05/15 06:41:19;;;;;;;24.67;11.77;;;;;;;;;;5052388;28;20083;-84
2021/05/15 06:43:47;;;;;;;25.25;10.52;;;;;;;;;;5036033;28;20346;-84
2021/05/15 06:46:13;;;;;;;26.98;12.13;;;;;;;;;;5052319;28;20044;-84
2021/05/15 06:48:39;;;;;;;26.45;11.32;;;;;;;;;;5035865;28;20037;-84
2021/05/15 06:51:05;;;;;;;22.92;10.35;;;;;;;;;;5053347;28;20496;-84
2021/05/15 06:53:31;;;;;;;25.50;10.52;;;;;;;;;;5053363;28;20037;-85
2021/05/15 06:55:57;;;;;;;23.20;11.35;;;;;;;;;;5053331;28;20044;-84
2021/05/15 06:58:23;;;;;;;26.15;11.00;;;;;;;;;;5053196;28;20044;-84
2021/05/15 07:00:49;;;;;;;25.08;10.38;;;;;;;;;;5052122;28;20480;-85
2021/05/15 07:03:15;;;;;;;22.70;10.80;;;;;;;;;;5052561;28;20048;-88
2021/05/15 07:05:41;;;;;;;25.85;11.20;;;;;;;;;;5051855;28;20123;-86
2021/05/15 07:08:07;;;;;;;23.75;10.88;;;;;;;;;;5035412;28;20041;-88
2021/05/15 07:10:33;;;;;;;24.38;10.80;;;;;;;;;;5051969;28;20538;-86
2021/05/15 07:12:59;;;;;;;25.85;10.73;;;;;;;;;;5035308;28;20104;-86
2021/05/15 07:15:25;;;;;;;24.20;11.85;;;;;;;;;;5051853;28;20481;-86
2021/05/15 07:17:51;;;;;;;23.13;10.40;;;;;;;;;;5051674;28;20193;-87
2021/05/15 07:20:17;;;;;;;26.77;12.05;;;;;;;;;;5053060;28;20297;-86
2021/05/15 07:22:45;;;;;;;24.77;11.07;;;;;;;;;;5035134;28;20033;-87
2021/05/15 07:25:11;;;;;;;22.95;10.35;;;;;;;;;;5051590;28;20040;-87
2021/05/15 07:27:37;;;;;;;23.58;11.02;;;;;;;;;;5051500;28;20033;-87
2021/05/15 07:30:03;;;;;;;26.67;11.80;;;;;;;;;;5052716;28;20163;-86
2021/05/15 07:32:29;;;;;;;25.05;10.85;;;;;;;;;;5035022;28;20045;-86
2021/05/15 07:34:55;;;;;;;24.55;10.73;;;;;;;;;;5052585;28;20048;-86
2021/05/15 07:37:21;;;;;;;28.05;9.00;;;;;;;;;;5051448;28;20032;-87
2021/05/15 07:39:48;;;;;;;21.88;10.48;;;;;;;;;;5051833;28;20041;-89
2021/05/15 07:42:14;;;;;;;25.63;10.60;;;;;;;;;;5034613;28;20057;-86
2021/05/15 07:44:41;;;;;;;21.95;10.77;;;;;;;;;;5034921;28;20393;-86
2021/05/15 07:47:08;;;;;;;22.17;10.95;;;;;;;;;;5051169;28;20052;-86
2021/05/15 07:49:34;;;;;;;27.38;11.30;;;;;;;;;;5050803;28;20037;-86
2021/05/15 07:52:00;;;;;;;24.25;11.02;;;;;;;;;;5051122;28;20098;-87
2021/05/15 07:54:26;;;;;;;25.85;11.55;;;;;;;;;;5034477;28;20045;-87
2021/05/15 07:56:54;;;;;;;21.85;10.98;;;;;;;;;;5051153;28;20147;-88
2021/05/15 07:59:21;;;;;;;23.42;10.90;;;;;;;;;;5035014;28;20044;-89
2021/05/15 08:01:50;;;;;;;22.65;11.95;;;;;;;;;;5014188;28;20086;-89
2021/05/15 08:04:16;;;;;;;22.88;11.95;;;;;;;;;;5001700;28;20407;-88
2021/05/15 08:06:42;;;;;;;24.30;10.93;;;;;;;;;;5031271;28;20048;-88
2021/05/15 08:09:08;;;;;;;23.80;11.02;;;;;;;;;;5033250;28;20491;-89
2021/05/15 08:11:35;;;;;;;23.98;11.13;;;;;;;;;;5051099;28;20045;-88
2021/05/15 08:14:04;;;;;;;23.05;11.30;;;;;;;;;;5050994;28;20037;-86
2021/05/15 08:16:30;;;;;;;28.20;12.20;;;;;;;;;;5031890;28;20124;-81
2021/05/15 08:18:57;;;;;;;21.98;10.93;;;;;;;;;;5030966;28;20154;-82
2021/05/15 08:21:23;;;;;;;28.88;12.95;;;;;;;;;;5047329;28;20481;-83
2021/05/15 08:23:49;;;;;;;26.60;11.27;;;;;;;;;;5047612;28;20044;-85
2021/05/15 08:26:15;;;;;;;25.60;11.68;;;;;;;;;;5030910;28;20033;-82
2021/05/15 08:28:44;;;;;;;26.20;11.98;;;;;;;;;;5031944;28;20401;-81
2021/05/15 08:31:10;;;;;;;25.00;12.23;;;;;;;;;;5030360;28;20120;-81
2021/05/15 08:33:36;;;;;;;31.35;12.65;;;;;;;;;;5030637;28;20049;-81
2021/05/15 08:36:03;;;;;;;25.48;11.80;;;;;;;;;;5047028;28;20034;-81
2021/05/15 08:38:29;;;;;;;24.63;12.02;;;;;;;;;;5047048;28;20037;-81
2021/05/15 08:40:55;;;;;;;24.67;12.15;;;;;;;;;;5031570;28;20053;-81
2021/05/15 08:43:21;;;;;;;32.15;12.82;;;;;;;;;;5031798;28;20045;-81
2021/05/15 08:45:51;;;;;;;29.80;12.68;;;;;;;;;;5046907;28;20091;-81
2021/05/15 08:48:17;;;;;;;29.73;12.82;;;;;;;;;;5030515;28;20037;-83
2021/05/15 08:50:43;;;;;;;28.52;12.32;;;;;;;;;;5030573;28;20469;-81
2021/05/15 08:53:09;;;;;;;34.10;13.20;;;;;;;;;;5047089;28;20052;-81
2021/05/15 08:55:35;;;;;;;39.13;14.50;;;;;;;;;;5030562;28;20037;-81
2021/05/15 08:58:02;;;;;;;38.13;14.50;;;;;;;;;;5046993;28;20112;-80
2021/05/15 09:00:29;;;;;;;36.40;15.75;;;;;;;;;;5031660;28;20045;-81
2021/05/15 09:02:57;;;;;;;43.05;15.60;;;;;;;;;;5046904;28;20044;-81
2021/05/15 09:05:23;;;;;;;40.92;16.75;;;;;;;;;;5047007;28;20049;-80
2021/05/15 09:07:50;;;;;;;39.90;15.70;;;;;;;;;;5031797;28;20040;-81
2021/05/15 09:10:17;;;;;;;41.80;16.90;;;;;;;;;;5046923;28;20481;-80
2021/05/15 09:12:43;;;;;;;40.88;17.05;;;;;;;;;;5030530;28;20710;-81
2021/05/15 09:15:10;;;;;;;42.65;16.70;;;;;;;;;;5046856;28;20124;-81
2021/05/15 09:17:47;;;;;;;46.15;18.13;;;;;;;;;;5030333;28;20179;-81
2021/05/15 09:20:26;;;;;;;40.67;16.73;;;;;;;;;;5031566;28;20067;-81
2021/05/15 09:22:52;;;;;;;41.50;16.27;;;;;;;;;;5046902;28;20041;-81
2021/05/15 09:25:18;;;;;;;37.70;16.42;;;;;;;;;;5046893;28;20550;-81
2021/05/15 09:27:44;;;;;;;43.60;17.10;;;;;;;;;;5035105;28;20171;-81
2021/05/15 09:30:10;;;;;;;40.97;18.23;;;;;;;;;;5050462;28;20088;-81
2021/05/15 09:32:36;;;;;;;41.97;17.23;;;;;;;;;;5050319;28;20044;-80
2021/05/15 09:35:03;;;;;;;34.05;15.85;;;;;;;;;;5033844;28;20041;-81
2021/05/15 09:37:40;;;;;;;39.10;17.30;;;;;;;;;;5050099;28;20041;-81
2021/05/15 09:40:10;;;;;;;42.38;17.70;;;;;;;;;;5050057;28;20124;-81
2021/05/15 09:42:45;;;;;;;41.65;17.75;;;;;;;;;;5033754;28;20038;-80
2021/05/15 09:45:18;;;;;;;41.70;18.02;;;;;;;;;;5034825;28;20053;-81
2021/05/15 09:47:52;;;;;;;47.08;18.23;;;;;;;;;;5034525;28;20049;-80
2021/05/15 09:50:18;;;;;;;46.65;19.50;;;;;;;;;;5034668;28;20069;-81
2021/05/15 09:52:44;;;;;;;42.00;19.23;;;;;;;;;;5034647;28;20072;-81
2021/05/15 09:55:10;;;;;;;45.65;19.02;;;;;;;;;;5034608;28;20061;-84
2021/05/15 09:57:36;;;;;;;39.70;19.33;;;;;;;;;;5049936;28;20064;-83
2021/05/15 10:00:10;;;;;;;44.80;18.75;;;;;;;;;;5049922;28;20037;-80
2021/05/15 10:02:36;;;;;;;43.58;20.20;;;;;;;;;;5049829;28;20121;-81
2021/05/15 10:05:12;;;;;;;39.35;19.05;;;;;;;;;;5049598;28;20111;-81
2021/05/15 10:07:38;;;;;;;46.83;19.17;;;;;;;;;;5049699;28;20044;-81
2021/05/15 10:10:08;;;;;;;38.65;19.60;;;;;;;;;;5049718;28;20124;-81
2021/05/15 10:12:34;;;;;;;45.40;19.65;;;;;;;;;;5049717;28;20038;-81
2021/05/15 10:15:01;;;;;;;41.58;19.15;;;;;;;;;;5033179;28;20124;-81
2021/05/15 10:17:27;;;;;;;38.97;18.80;;;;;;;;;;5034084;28;20113;-81
2021/05/15 10:19:54;;;;;;;39.97;18.88;;;;;;;;;;5049640;28;20037;-81
2021/05/15 10:22:20;;;;;;;38.00;18.38;;;;;;;;;;5049189;28;20457;-81
2021/05/15 10:24:47;;;;;;;39.63;19.25;;;;;;;;;;5032824;28;20077;-81
2021/05/15 10:27:14;;;;;;;40.65;17.85;;;;;;;;;;5049235;28;20041;-82
2021/05/15 10:29:43;;;;;;;37.05;19.13;;;;;;;;;;5032931;28;20103;-83
2021/05/15 10:32:10;;;;;;;39.80;19.42;;;;;;;;;;5032684;28;20045;-82
2021/05/15 10:34:36;;;;;;;40.17;18.40;;;;;;;;;;5033912;28;20546;-82
2021/05/15 10:37:02;;;;;;;35.53;18.08;;;;;;;;;;5032887;28;20120;-83
2021/05/15 10:39:29;;;;;;;41.30;19.33;;;;;;;;;;5032520;28;20049;-81
2021/05/15 10:41:55;;;;;;;38.00;18.15;;;;;;;;;;5049023;28;20498;-82
2021/05/15 10:44:21;;;;;;;39.78;18.15;;;;;;;;;;5032450;28;20053;-81
2021/05/15 10:46:48;;;;;;;39.88;17.77;;;;;;;;;;5033547;28;20148;-79
2021/05/15 10:49:17;;;;;;;37.55;17.30;;;;;;;;;;5032483;28;20049;-81
2021/05/15 10:51:47;;;;;;;38.13;18.27;;;;;;;;;;5049033;28;20420;-80
2021/05/15 10:54:17;;;;;;;35.95;17.90;;;;;;;;;;5032340;28;20406;-81
2021/05/15 10:56:48;;;;;;;35.63;18.98;;;;;;;;;;5048663;28;20087;-80
2021/05/15 10:59:20;;;;;;;32.30;17.35;;;;;;;;;;5048634;28;20493;-81
2021/05/15 11:01:53;;;;;;;32.63;17.38;;;;;;;;;;5032902;28;20471;-81
2021/05/15 11:04:26;;;;;;;35.33;18.45;;;;;;;;;;5050627;28;20045;-81
2021/05/15 11:06:55;;;;;;;35.22;17.48;;;;;;;;;;5053088;28;20040;-80
2021/05/15 11:09:21;;;;;;;33.58;18.38;;;;;;;;;;5052866;28;20442;-80
2021/05/15 11:11:47;;;;;;;32.33;18.17;;;;;;;;;;5053063;28;20045;-81
2021/05/15 11:14:29;;;;;;;38.22;19.15;;;;;;;;;;5051806;28;20262;-82
2021/05/15 11:17:05;;;;;;;37.00;18.23;;;;;;;;;;5051777;28;20493;-82
2021/05/15 11:19:31;;;;;;;32.83;17.77;;;;;;;;;;5051646;28;20037;-82
2021/05/15 11:21:57;;;;;;;34.15;17.67;;;;;;;;;;5052739;28;20036;-82
2021/05/15 11:24:33;;;;;;;33.08;18.25;;;;;;;;;;5035025;28;20071;-82
2021/05/15 11:27:09;;;;;;;35.10;17.63;;;;;;;;;;5052666;28;20117;-84
2021/05/15 11:29:36;;;;;;;33.28;17.40;;;;;;;;;;5036427;28;20036;-83
2021/05/15 11:32:08;;;;;;;37.92;18.05;;;;;;;;;;5051499;28;20044;-83
2021/05/15 11:34:35;;;;;;;31.08;16.58;;;;;;;;;;5052563;28;20431;-83
2021/05/15 11:37:01;;;;;;;31.35;17.02;;;;;;;;;;5051244;28;20079;-83
2021/05/15 11:39:27;;;;;;;34.20;18.08;;;;;;;;;;5034905;28;20043;-83
2021/05/15 11:42:07;;;;;;;31.80;18.17;;;;;;;;;;5051193;28;20128;-86
2021/05/15 11:44:33;;;;;;;36.08;18.27;;;;;;;;;;5051305;28;20095;-83
2021/05/15 11:47:01;;;;;;;34.33;17.27;;;;;;;;;;5034559;28;20116;-80
2021/05/15 11:49:28;;;;;;;34.67;18.80;;;;;;;;;;5052234;28;20071;-83
2021/05/15 11:51:58;;;;;;;31.55;17.77;;;;;;;;;;5034729;28;20445;-82
2021/05/15 11:54:24;;;;;;;28.52;17.15;;;;;;;;;;5050957;28;20049;-82
2021/05/15 11:56:51;;;;;;;30.98;16.83;;;;;;;;;;5052065;28;20048;-82
2021/05/15 11:59:18;;;;;;;33.17;18.60;;;;;;;;;;5052054;28;20064;-82
2021/05/15 12:01:44;;;;;;;26.65;15.23;;;;;;;;;;5050725;28;20047;-82
2021/05/15 12:04:25;;;;;;;31.45;17.77;;;;;;;;;;5050863;28;20037;-82
2021/05/15 12:06:53;;;;;;;28.50;15.63;;;;;;;;;;5036141;28;20053;-82
2021/05/15 12:09:21;;;;;;;29.80;16.55;;;;;;;;;;5050912;28;20396;-82
2021/05/15 12:11:47;;;;;;;29.17;16.30;;;;;;;;;;5034606;28;20037;-82
2021/05/15 12:14:13;;;;;;;29.92;16.15;;;;;;;;;;5050732;28;20051;-82
2021/05/15 12:16:39;;;;;;;28.65;16.38;;;;;;;;;;5034132;28;20492;-85
2021/05/15 12:19:05;;;;;;;25.35;15.45;;;;;;;;;;5050858;28;20041;-82
2021/05/15 12:21:31;;;;;;;25.60;15.48;;;;;;;;;;5050691;28;20048;-83
2021/05/15 12:24:04;;;;;;;29.73;15.60;;;;;;;;;;5051302;28;20377;-82
2021/05/15 12:26:30;;;;;;;25.08;15.00;;;;;;;;;;5052037;28;20499;-84
2021/05/15 12:28:59;;;;;;;24.98;15.77;;;;;;;;;;5033562;28;20075;-83
2021/05/15 12:31:35;;;;;;;26.00;15.30;;;;;;;;;;5033554;28;20048;-82
2021/05/15 12:34:01;;;;;;;28.05;16.35;;;;;;;;;;5034253;28;20048;-83
2021/05/15 12:36:30;;;;;;;24.85;15.38;;;;;;;;;;5050762;28;20133;-83
2021/05/15 12:38:57;;;;;;;24.05;14.05;;;;;;;;;;5050767;28;20037;-83
2021/05/15 12:41:23;;;;;;;25.02;16.00;;;;;;;;;;5050367;28;20045;-81
2021/05/15 12:44:06;;;;;;;22.98;14.32;;;;;;;;;;5050611;28;20041;-83
2021/05/15 12:46:38;;;;;;;24.10;15.30;;;;;;;;;;5033877;28;20037;-82
2021/05/15 12:49:08;;;;;;;25.63;15.52;;;;;;;;;;5050715;28;20104;-83
2021/05/15 12:51:36;;;;;;;21.67;14.13;;;;;;;;;;5050371;28;20122;-83
2021/05/15 12:54:15;;;;;;;24.58;14.55;;;;;;;;;;5050626;28;20099;-83
2021/05/15 12:56:41;;;;;;;26.17;15.93;;;;;;;;;;5050468;28;20159;-83
2021/05/15 12:59:08;;;;;;;22.33;14.85;;;;;;;;;;5050547;28;20116;-83
2021/05/15 13:01:36;;;;;;;22.85;13.10;;;;;;;;;;5052781;28;20376;-83
2021/05/15 13:04:02;;;;;;;21.25;13.48;;;;;;;;;;5054288;28;20069;-83
2021/05/15 13:06:30;;;;;;;21.23;13.10;;;;;;;;;;5054435;28;20094;-83
2021/05/15 13:08:59;;;;;;;22.25;13.32;;;;;;;;;;5054207;28;20037;-82
2021/05/15 13:11:26;;;;;;;23.55;14.65;;;;;;;;;;5055340;28;20120;-82
2021/05/15 13:13:52;;;;;;;20.92;12.60;;;;;;;;;;5054108;28;20041;-83
2021/05/15 13:16:18;;;;;;;24.27;14.68;;;;;;;;;;5054014;28;20472;-83
2021/05/15 13:18:45;;;;;;;24.77;14.05;;;;;;;;;;5055101;28;20037;-83
2021/05/15 13:21:11;;;;;;;23.58;13.95;;;;;;;;;;5054037;28;20033;-83
2021/05/15 13:23:37;;;;;;;27.15;15.55;;;;;;;;;;5053845;28;20101;-83
2021/05/15 13:26:04;;;;;;;19.70;13.35;;;;;;;;;;5055023;28;20033;-82
2021/05/15 13:28:30;;;;;;;25.63;13.77;;;;;;;;;;5053992;28;20048;-81
2021/05/15 13:30:56;;;;;;;23.50;13.98;;;;;;;;;;5053880;28;20036;-81
2021/05/15 13:33:22;;;;;;;22.45;14.18;;;;;;;;;;5054967;28;20037;-81
2021/05/15 13:35:48;;;;;;;26.17;14.50;;;;;;;;;;5055005;28;20052;-81
2021/05/15 13:38:14;;;;;;;26.38;15.18;;;;;;;;;;5054983;28;20388;-82
2021/05/15 13:40:40;;;;;;;22.65;13.88;;;;;;;;;;5054574;28;20511;-80
2021/05/15 13:43:07;;;;;;;21.00;13.15;;;;;;;;;;5053461;28;20041;-81
2021/05/15 13:45:33;;;;;;;21.65;12.73;;;;;;;;;;5054885;28;20041;-81
2021/05/15 13:47:59;;;;;;;18.67;11.95;;;;;;;;;;5053460;28;20040;-81
2021/05/15 13:50:25;;;;;;;21.25;12.20;;;;;;;;;;5053587;28;20072;-81
2021/05/15 13:52:53;;;;;;;17.15;11.40;;;;;;;;;;5054717;28;20044;-82
2021/05/15 13:55:19;;;;;;;15.80;10.65;;;;;;;;;;5054661;28;20044;-81
2021/05/15 13:57:45;;;;;;;21.20;12.45;;;;;;;;;;5036574;28;20120;-81
2021/05/15 14:00:12;;;;;;;22.05;12.32;;;;;;;;;;5053279;28;20073;-82
2021/05/15 14:02:39;;;;;;;20.63;12.52;;;;;;;;;;5054360;28;20032;-84
2021/05/15 14:05:07;;;;;;;21.40;12.52;;;;;;;;;;5053307;28;20060;-84
2021/05/15 14:07:33;;;;;;;19.70;12.30;;;;;;;;;;5036947;28;20037;-83
2021/05/15 14:09:59;;;;;;;19.70;11.77;;;;;;;;;;5054348;28;20139;-84
2021/05/15 14:12:26;;;;;;;20.48;11.25;;;;;;;;;;5054180;28;20025;-85
2021/05/15 14:14:52;;;;;;;16.73;10.70;;;;;;;;;;5036561;28;20048;-83
2021/05/15 14:17:19;;;;;;;16.27;11.07;;;;;;;;;;5036466;28;20476;-84
2021/05/15 14:19:45;;;;;;;17.17;11.20;;;;;;;;;;5054041;28;20086;-84